Time;durP1;ratioP1;P1;durP2;ratioP2;P2;SDS_P1;SDS_P2;PMS_P1;PMS_P2;Temp;Humidity;BMP_temperature;BMP_pressure;BME280_temperature;BME280_humidity;BME280_pressure;Samples;Min_cycle;Max_cycle;Signal;HPM_P1;HPM_P2
2021/12/07 00:01:32;;;;;;;2.97;0.82;;;;;;;18.49;45.51;100459.03;5067254;28;20032;-63
2021/12/07 00:03:57;;;;;;;3.88;0.90;;;;;;;18.55;45.61;100462.91;5066213;28;20056;-63
2021/12/07 00:06:22;;;;;;;3.45;0.85;;;;;;;18.50;45.43;100458.06;5066264;28;20045;-63
2021/12/07 00:08:51;;;;;;;3.53;1.05;;;;;;;18.52;45.50;100464.06;5049131;28;20108;-63
2021/12/07 00:11:17;;;;;;;4.78;1.00;;;;;;;18.47;45.76;100468.97;5035733;28;20044;-63
2021/12/07 00:13:43;;;;;;;2.95;0.82;;;;;;;18.48;45.41;100470.63;5053090;28;20044;-63
2021/12/07 00:16:09;;;;;;;4.78;1.00;;;;;;;18.50;45.88;100460.72;5069739;28;20045;-63
2021/12/07 00:18:35;;;;;;;4.43;0.70;;;;;;;18.46;45.68;100475.28;5058859;28;20112;-63
2021/12/07 00:21:01;;;;;;;5.65;1.08;;;;;;;18.44;45.92;100474.56;5032583;28;20128;-64
2021/12/07 00:23:26;;;;;;;4.22;1.20;;;;;;;18.43;45.98;100473.75;5049055;28;20044;-63
2021/12/07 00:25:52;;;;;;;3.72;1.10;;;;;;;18.45;45.59;100476.22;5070791;28;20043;-63
2021/12/07 00:28:20;;;;;;;4.13;0.80;;;;;;;18.42;45.54;100476.53;5069847;28;20033;-63
2021/12/07 00:30:47;;;;;;;3.50;0.90;;;;;;;18.45;45.43;100490.34;5069654;28;20037;-63
2021/12/07 00:35:39;;;;;;;7.15;1.02;;;;;;;18.40;45.39;100497.94;5070310;28;20029;-63
2021/12/07 00:38:07;;;;;;;4.75;1.20;;;;;;;18.43;45.98;100496.81;5052172;28;20459;-63
2021/12/07 00:40:33;;;;;;;5.45;1.00;;;;;;;18.44;45.28;100501.13;5036287;28;20071;-63
2021/12/07 00:42:58;;;;;;;4.00;0.85;;;;;;;18.41;45.54;100504.09;5052168;28;20127;-63
2021/12/07 00:45:25;;;;;;;2.05;0.55;;;;;;;18.39;45.94;100519.31;5069744;28;20635;-63
2021/12/07 00:47:52;;;;;;;5.80;0.90;;;;;;;18.36;46.09;100527.56;5070354;28;20484;-63
2021/12/07 00:50:19;;;;;;;5.72;1.30;;;;;;;18.38;45.28;100518.47;5069626;28;20045;-63
2021/12/07 00:52:44;;;;;;;5.60;0.90;;;;;;;18.36;45.97;100524.91;5070242;28;20487;-63
2021/12/07 00:55:12;;;;;;;4.38;0.93;;;;;;;18.36;45.40;100535.53;5068797;28;20056;-63
2021/12/07 00:57:38;;;;;;;5.97;1.10;;;;;;;18.36;45.88;100532.88;5052441;28;20043;-63
2021/12/07 01:00:14;;;;;;;3.58;1.15;;;;;;;18.32;45.72;100527.03;5069951;28;20032;-63
2021/12/07 01:02:40;;;;;;;4.45;1.00;;;;;;;18.30;45.54;100541.44;5052100;28;20047;-63
2021/12/07 01:05:13;;;;;;;4.13;1.02;;;;;;;18.30;45.53;100541.44;5069361;28;20037;-63
2021/12/07 01:26:30;;;;;;;6.63;1.25;;;;;;;18.15;45.59;100567.63;5061671;28;20036;-63
2021/12/07 01:28:56;;;;;;;4.80;1.00;;;;;;;18.16;45.55;100577.25;5069377;28;20041;-63
2021/12/07 01:31:32;;;;;;;8.57;1.20;;;;;;;18.13;45.53;100588.16;5069057;28;20115;-63
2021/12/07 01:58:06;;;;;;;5.72;1.02;;;;;;;18.00;45.25;100609.69;5039856;28;20078;-63
2021/12/07 02:00:35;;;;;;;5.35;1.00;;;;;;;18.03;45.43;100617.38;5068545;28;20040;-63
2021/12/07 02:03:01;;;;;;;3.03;0.90;;;;;;;18.03;45.60;100617.38;5068197;28;20048;-64
2021/12/07 02:05:27;;;;;;;4.22;0.98;;;;;;;18.02;45.58;100637.78;5068513;28;20396;-63
2021/12/07 02:07:52;;;;;;;4.13;1.10;;;;;;;18.01;45.80;100638.72;5051065;28;20036;-63
2021/12/07 02:10:22;;;;;;;5.22;0.90;;;;;;;18.01;45.50;100645.88;5068266;28;20055;-63
2021/12/07 02:12:50;;;;;;;5.72;1.15;;;;;;;18.01;45.68;100643.22;5051567;28;20147;-63
2021/12/07 02:15:20;;;;;;;4.50;0.80;;;;;;;17.99;45.91;100650.50;5050363;28;20128;-63
2021/12/07 02:17:45;;;;;;;4.05;0.80;;;;;;;17.94;45.78;100656.22;5050864;28;20045;-63
2021/12/07 02:20:12;;;;;;;6.70;1.30;;;;;;;17.99;45.39;100658.47;5068077;28;20147;-63
2021/12/07 02:22:37;;;;;;;4.18;1.08;;;;;;;18.00;46.00;100660.13;5050695;28;20587;-63
2021/12/07 02:25:04;;;;;;;4.63;0.90;;;;;;;17.96;45.39;100659.56;5068136;28;20040;-63
2021/12/07 02:27:29;;;;;;;5.22;0.90;;;;;;;17.96;45.49;100664.03;5049508;28;20049;-63
2021/12/07 02:29:54;;;;;;;5.35;1.00;;;;;;;17.92;45.51;100650.19;5068496;28;20450;-63
2021/12/07 02:32:20;;;;;;;4.38;0.98;;;;;;;17.94;45.70;100664.16;5067679;28;20128;-63
2021/12/07 02:34:54;;;;;;;2.65;0.70;;;;;;;17.91;45.13;100660.97;5068367;28;20025;-63
2021/12/07 02:37:27;;;;;;;4.93;0.90;;;;;;;17.89;45.51;100665.56;5051444;28;20152;-63
2021/12/07 02:39:53;;;;;;;5.32;1.10;;;;;;;17.90;45.58;100677.88;5068750;28;20029;-63
2021/12/07 02:42:18;;;;;;;3.05;0.90;;;;;;;17.90;46.07;100681.34;5068113;28;20041;-63
2021/12/07 02:44:44;;;;;;;3.38;0.80;;;;;;;17.87;45.44;100680.81;5033916;28;20040;-63
2021/12/07 02:47:09;;;;;;;4.35;0.85;;;;;;;17.88;45.64;100678.00;5048915;28;20051;-63
2021/12/07 02:49:35;;;;;;;5.35;1.08;;;;;;;17.88;45.53;100690.44;5050362;28;20040;-63
2021/12/07 02:52:02;;;;;;;3.45;1.13;;;;;;;17.83;45.71;100687.34;5050380;28;20111;-63
2021/12/07 02:54:28;;;;;;;5.15;1.13;;;;;;;17.80;45.84;100694.63;5067418;28;20098;-63
2021/12/07 02:56:54;;;;;;;6.40;1.48;;;;;;;17.80;45.74;100693.78;5068041;28;20454;-63
2021/12/07 02:59:21;;;;;;;5.07;0.98;;;;;;;17.80;45.65;100699.94;5029685;28;20041;-63
2021/12/07 03:01:55;;;;;;;4.65;0.73;;;;;;;17.84;45.35;100715.56;5048148;28;20048;-63
2021/12/07 03:04:25;;;;;;;4.50;0.80;;;;;;;17.84;45.61;100711.09;5048369;28;20072;-63
2021/12/07 03:07:06;;;;;;;4.65;1.00;;;;;;;17.85;45.61;100710.13;5067800;28;20064;-63
2021/12/07 03:28:27;;;;;;;5.75;0.80;;;;;;;17.69;45.80;100731.00;5067659;28;20036;-63
2021/12/07 03:30:53;;;;;;;5.68;1.23;;;;;;;17.69;45.78;100737.16;5067891;28;20058;-63
2021/12/07 03:33:18;;;;;;;5.10;1.30;;;;;;;17.68;45.69;100738.13;5049288;28;20626;-63
2021/12/07 03:35:43;;;;;;;8.98;1.05;;;;;;;17.69;45.53;100744.28;5067561;28;20563;-63
2021/12/07 03:38:09;;;;;;;6.10;1.05;;;;;;;17.69;45.56;100750.41;5049602;28;20120;-63
2021/12/07 03:40:35;;;;;;;7.30;1.05;;;;;;;17.68;45.74;100753.22;5067825;28;20037;-63
2021/12/07 03:43:00;;;;;;;5.03;0.88;;;;;;;17.66;45.68;100747.19;5032729;28;20562;-65
2021/12/07 03:45:26;;;;;;;5.53;0.90;;;;;;;17.67;45.64;100747.03;5070329;28;20040;-63
2021/12/07 03:47:52;;;;;;;3.78;0.85;;;;;;;17.69;45.89;100741.63;5071247;28;20040;-63
2021/12/07 03:50:20;;;;;;;5.30;1.20;;;;;;;17.66;45.42;100745.38;5071019;28;20083;-63
2021/12/07 03:52:46;;;;;;;4.20;0.90;;;;;;;17.69;45.66;100745.09;5054013;28;20056;-63
2021/12/07 03:55:11;;;;;;;6.32;1.10;;;;;;;17.68;45.45;100750.56;5053204;28;20067;-63
2021/12/07 03:57:37;;;;;;;5.88;1.10;;;;;;;17.65;45.48;100759.63;5071223;28;20129;-63
2021/12/07 04:00:05;;;;;;;3.13;0.80;;;;;;;17.64;45.59;100755.28;5070980;28;20039;-63
2021/12/07 04:02:36;;;;;;;5.18;1.15;;;;;;;17.63;45.44;100755.41;5071233;28;20037;-63
2021/12/07 04:05:08;;;;;;;4.93;0.90;;;;;;;17.56;46.10;100752.47;5070633;28;20119;-64
2021/12/07 04:07:34;;;;;;;4.93;0.75;;;;;;;17.57;45.76;100762.09;5053912;28;20037;-63
2021/12/07 04:09:59;;;;;;;5.32;1.23;;;;;;;17.58;45.49;100763.78;5071062;28;20522;-63
2021/12/07 04:12:24;;;;;;;4.32;0.68;;;;;;;17.57;45.50;100778.84;5070428;28;20044;-63
2021/12/07 04:14:50;;;;;;;6.72;1.23;;;;;;;17.55;45.86;100772.03;5036535;28;20055;-62
2021/12/07 04:17:15;;;;;;;5.25;1.08;;;;;;;17.56;45.91;100774.53;5070135;28;20505;-63
2021/12/07 04:19:41;;;;;;;4.10;0.80;;;;;;;17.54;45.93;100778.28;5070986;28;20036;-63
2021/12/07 04:22:06;;;;;;;4.38;0.73;;;;;;;17.53;45.79;100766.84;5070413;28;20488;-64
2021/12/07 04:24:31;;;;;;;3.83;0.93;;;;;;;17.57;45.69;100770.06;5070627;28;20405;-63
2021/12/07 04:26:57;;;;;;;5.43;1.00;;;;;;;17.52;46.06;100774.94;5070110;28;20467;-63
2021/12/07 04:29:22;;;;;;;4.22;0.88;;;;;;;17.52;45.82;100775.78;5069423;28;20075;-63
2021/12/07 04:31:48;;;;;;;5.40;0.90;;;;;;;17.50;45.85;100772.41;5052816;28;20506;-63
2021/12/07 04:34:13;;;;;;;5.13;1.00;;;;;;;17.50;45.58;100798.09;5035670;28;20411;-63
2021/12/07 04:36:39;;;;;;;4.32;0.80;;;;;;;17.47;45.80;100782.44;5070475;28;20090;-63
2021/12/07 04:39:04;;;;;;;4.38;0.70;;;;;;;17.50;46.37;100774.22;5069136;28;20109;-63
2021/12/07 04:41:33;;;;;;;6.63;0.77;;;;;;;17.49;45.90;100793.78;5052439;28;20435;-63
2021/12/07 04:44:00;;;;;;;4.68;1.00;;;;;;;17.51;46.25;100794.47;5070623;28;20118;-63
2021/12/07 04:46:36;;;;;;;4.25;1.00;;;;;;;17.49;45.93;100799.91;5052248;28;20040;-63
2021/12/07 05:00:03;;;;;;;4.95;0.80;;;;;;;17.43;45.85;100812.88;5069918;28;20106;-63
2021/12/07 05:02:29;;;;;;;5.30;0.70;;;;;;;17.43;45.83;100811.06;5052109;28;20307;-63
2021/12/07 05:04:55;;;;;;;5.13;1.20;;;;;;;17.39;45.92;100806.97;5035535;28;20535;-63
2021/12/07 05:07:37;;;;;;;3.60;1.05;;;;;;;17.39;45.76;100800.81;5051712;28;20048;-62
2021/12/07 05:10:25;;;;;;;5.10;1.10;;;;;;;17.37;45.98;100808.94;5053318;28;20029;-63
2021/12/07 05:13:21;;;;;;;5.63;1.17;;;;;;;17.41;46.09;100814.81;5069800;28;20105;-63
2021/12/07 05:39:48;;;;;;;4.70;0.90;;;;;;;17.84;45.90;100865.03;5051562;28;20067;-63
2021/12/07 05:42:14;;;;;;;4.43;0.80;;;;;;;17.95;45.71;100874.69;5068595;28;20037;-64
2021/12/07 05:44:39;;;;;;;6.35;1.05;;;;;;;18.00;46.80;100875.13;5058406;28;20090;-63
2021/12/07 05:47:05;;;;;;;5.53;0.95;;;;;;;18.01;46.38;100877.63;5062453;28;20071;-63
2021/12/07 05:49:30;;;;;;;3.65;0.70;;;;;;;18.07;46.16;100883.41;5021256;28;20132;-63
2021/12/07 05:51:56;;;;;;;4.22;0.85;;;;;;;18.08;46.01;100867.31;5068785;28;20039;-63
2021/12/07 05:54:21;;;;;;;3.40;0.80;;;;;;;18.15;45.56;100872.94;5068560;28;20186;-63
2021/12/07 05:56:47;;;;;;;3.85;0.75;;;;;;;18.23;45.93;100873.94;5068842;28;20037;-63
2021/12/07 05:59:12;;;;;;;4.97;0.80;;;;;;;18.37;45.46;100869.22;5068636;28;20039;-63
2021/12/07 06:01:38;;;;;;;3.03;0.80;;;;;;;18.44;45.82;100860.56;5068085;28;20083;-63
2021/12/07 06:04:03;;;;;;;3.80;0.90;;;;;;;18.49;45.50;100852.19;5068345;28;20449;-63
2021/12/07 06:06:29;;;;;;;10.50;0.95;;;;;;;18.54;45.58;100849.94;5050835;28;20496;-63
2021/12/07 06:08:54;;;;;;;4.60;0.80;;;;;;;18.60;45.49;100859.19;5068018;28;20029;-63
2021/12/07 06:11:22;;;;;;;3.20;0.60;;;;;;;18.61;45.15;100851.06;5060565;28;20090;-63
2021/12/07 06:13:47;;;;;;;4.10;0.85;;;;;;;18.65;45.02;100855.13;5052002;28;20045;-63
2021/12/07 06:16:15;;;;;;;4.00;0.60;;;;;;;18.71;45.62;100849.25;5047657;28;20558;-65
2021/12/07 06:18:41;;;;;;;4.03;0.80;;;;;;;18.76;45.21;100853.34;5061252;28;20087;-63
2021/12/07 06:21:07;;;;;;;2.85;0.68;;;;;;;18.79;45.12;100850.41;5067845;28;20106;-64
2021/12/07 06:23:32;;;;;;;4.50;0.90;;;;;;;18.80;45.25;100846.75;5050605;28;20463;-63
2021/12/07 06:25:59;;;;;;;3.72;0.77;;;;;;;18.82;45.81;100844.81;5057938;28;20056;-63
2021/12/07 06:28:24;;;;;;;4.10;0.73;;;;;;;18.83;45.44;100857.94;5049378;28;20463;-63
2021/12/07 06:30:49;;;;;;;4.57;0.65;;;;;;;18.85;45.77;100857.81;5039439;28;20078;-63
2021/12/07 06:33:17;;;;;;;3.30;0.73;;;;;;;18.92;45.70;100861.59;5067142;28;20040;-63
2021/12/07 06:35:43;;;;;;;2.78;0.68;;;;;;;18.93;45.87;100865.94;5061421;28;20039;-63
2021/12/07 06:38:08;;;;;;;3.97;0.60;;;;;;;18.97;46.01;100869.16;5065224;28;20049;-64
2021/12/07 06:40:34;;;;;;;4.20;0.70;;;;;;;19.00;45.54;100868.88;5067191;28;20051;-63
2021/12/07 06:43:00;;;;;;;3.92;0.80;;;;;;;19.04;45.84;100872.91;5067998;28;20131;-63
2021/12/07 06:45:27;;;;;;;3.60;0.80;;;;;;;19.07;45.82;100869.97;5067792;28;20812;-63
2021/12/07 06:47:53;;;;;;;2.60;0.50;;;;;;;19.08;45.80;100872.47;5068205;28;20037;-63
2021/12/07 06:50:18;;;;;;;4.18;0.60;;;;;;;19.11;45.24;100869.53;5062655;28;20130;-63
2021/12/07 06:52:44;;;;;;;3.92;0.80;;;;;;;19.11;45.44;100866.88;5067832;28;20489;-63
2021/12/07 06:55:09;;;;;;;2.13;0.50;;;;;;;19.12;45.37;100865.06;5041219;28;20562;-64
2021/12/07 06:57:35;;;;;;;4.47;0.80;;;;;;;19.13;45.94;100864.09;5030044;28;20443;-63
2021/12/07 07:00:00;;;;;;;3.10;0.77;;;;;;;19.15;45.15;100868.28;5048024;28;20052;-63
2021/12/07 07:02:25;;;;;;;3.17;0.70;;;;;;;19.16;46.06;100869.97;5044420;28;20507;-63
2021/12/07 07:04:51;;;;;;;3.55;0.70;;;;;;;19.19;45.83;100872.34;5049542;28;20039;-63
2021/12/07 07:07:18;;;;;;;4.15;0.88;;;;;;;19.21;45.27;100868.69;5049932;28;20064;-63
2021/12/07 07:09:43;;;;;;;4.07;0.80;;;;;;;19.20;45.61;100875.81;5054643;28;20037;-63
2021/12/07 07:12:09;;;;;;;4.85;0.60;;;;;;;19.23;45.81;100874.72;5042759;28;20037;-63
2021/12/07 07:14:34;;;;;;;2.40;0.60;;;;;;;19.23;45.69;100880.88;5056726;28;20051;-63
2021/12/07 07:17:00;;;;;;;5.53;0.60;;;;;;;19.24;45.82;100884.34;5038700;28;20037;-63
2021/12/07 07:19:25;;;;;;;4.03;0.80;;;;;;;19.25;45.96;100878.06;5055316;28;20056;-63
2021/12/07 07:21:51;;;;;;;5.32;0.70;;;;;;;19.26;45.25;100877.91;5061766;28;20109;-63
2021/12/07 07:24:16;;;;;;;4.88;0.65;;;;;;;19.27;45.71;100881.41;5052842;28;20124;-63
2021/12/07 07:26:42;;;;;;;4.15;0.68;;;;;;;19.29;46.08;100874.13;5071033;28;20127;-63
2021/12/07 07:29:07;;;;;;;4.43;0.63;;;;;;;19.29;46.00;100866.16;5031887;28;20115;-63
2021/12/07 07:31:33;;;;;;;3.33;0.60;;;;;;;19.30;46.11;100859.84;5050070;28;20048;-63
2021/12/07 07:33:58;;;;;;;2.95;0.70;;;;;;;19.26;46.34;100848.66;5067011;28;20060;-63
2021/12/07 07:36:24;;;;;;;3.78;0.68;;;;;;;19.26;46.36;100850.47;5036676;28;20501;-63
2021/12/07 07:38:49;;;;;;;3.53;0.70;;;;;;;19.25;46.23;100848.81;5054052;28;20037;-61
2021/12/07 07:41:14;;;;;;;5.07;0.80;;;;;;;18.09;43.98;100847.78;5050358;28;20484;-62
2021/12/07 07:43:40;;;;;;;5.63;0.98;;;;;;;18.38;44.68;100842.50;5063214;28;20043;-63
2021/12/07 07:46:05;;;;;;;5.65;0.77;;;;;;;18.68;45.89;100848.69;5060372;28;20037;-63
2021/12/07 07:48:31;;;;;;;3.65;0.85;;;;;;;18.90;45.51;100852.94;5033233;28;20382;-63
2021/12/07 07:50:56;;;;;;;4.18;0.80;;;;;;;19.01;45.51;100843.94;5041966;28;20553;-63
2021/12/07 07:53:22;;;;;;;3.90;0.75;;;;;;;19.05;45.26;100851.47;5042367;28;20040;-63
2021/12/07 07:55:48;;;;;;;4.13;0.90;;;;;;;19.08;45.22;100845.06;5063469;28;20045;-62
2021/12/07 07:58:13;;;;;;;4.20;0.60;;;;;;;19.11;45.17;100847.44;5041463;28;20032;-63
2021/12/07 08:00:40;;;;;;;4.05;0.85;;;;;;;19.13;44.74;100853.44;5060285;28;20067;-62
2021/12/07 08:03:05;;;;;;;3.25;0.77;;;;;;;19.14;45.38;100860.44;5068672;28;20044;-62
2021/12/07 08:05:31;;;;;;;3.80;0.70;;;;;;;19.15;44.73;100865.63;5069189;28;20028;-62
2021/12/07 08:07:56;;;;;;;3.67;0.70;;;;;;;19.14;45.41;100868.41;5059244;28;20033;-62
2021/12/07 08:10:22;;;;;;;3.53;0.60;;;;;;;19.11;45.00;100866.03;5048982;28;20488;-63
2021/12/07 08:12:48;;;;;;;3.45;0.80;;;;;;;19.08;44.98;100859.19;5054119;28;20047;-62
2021/12/07 08:15:14;;;;;;;2.55;0.70;;;;;;;19.08;45.27;100851.19;5051234;28;20084;-63
2021/12/07 08:17:39;;;;;;;3.92;0.95;;;;;;;19.08;45.66;100853.84;5056311;28;20463;-62
2021/12/07 08:20:42;;;;;;;4.45;1.23;;;;;;;19.08;45.43;100853.84;5036999;28;20040;-63
2021/12/07 08:23:07;;;;;;;5.50;0.85;;;;;;;19.11;44.43;100858.06;5060275;28;20054;-63
2021/12/07 08:25:37;;;;;;;3.13;1.00;;;;;;;19.12;44.77;100852.63;5052403;28;20024;-63
2021/12/07 08:28:04;;;;;;;3.83;0.80;;;;;;;19.11;45.48;100845.59;5035377;28;20041;-63
2021/12/07 08:30:29;;;;;;;5.05;0.65;;;;;;;19.12;45.01;100852.63;5069424;28;20052;-62
2021/12/07 08:32:55;;;;;;;2.78;0.60;;;;;;;19.12;45.67;100852.63;5032011;28;20116;-62
2021/12/07 08:35:20;;;;;;;3.38;0.82;;;;;;;19.11;45.54;100850.09;5031980;28;20497;-62
2021/12/07 08:37:49;;;;;;;4.35;0.60;;;;;;;19.10;44.69;100849.25;5033509;28;20021;-62
2021/12/07 08:40:19;;;;;;;4.80;0.82;;;;;;;19.12;45.10;100857.09;5038158;28;20390;-63
2021/12/07 08:42:44;;;;;;;4.97;0.77;;;;;;;19.14;44.77;100855.94;5065900;28;20102;-62
2021/12/07 08:45:10;;;;;;;3.50;0.60;;;;;;;19.14;44.75;100858.63;5041851;28;20571;-63
2021/12/07 08:47:35;;;;;;;2.95;0.88;;;;;;;19.13;44.78;100851.63;5051668;28;20032;-62
2021/12/07 08:50:02;;;;;;;3.50;0.65;;;;;;;19.11;45.27;100850.91;5049234;28;20588;-64
2021/12/07 08:52:27;;;;;;;3.22;0.60;;;;;;;19.12;45.26;100852.63;5031263;28;20044;-62
2021/12/07 09:00:03;;;;;;;1.60;0.50;;;;;;;19.07;44.26;100851.34;5065383;28;20610;-63
2021/12/07 09:02:29;;;;;;;3.63;0.55;;;;;;;19.09;45.33;100846.75;5061091;28;20040;-63
2021/12/07 09:04:54;;;;;;;2.03;0.52;;;;;;;19.10;45.03;100851.91;5035008;28;20055;-62
2021/12/07 09:07:20;;;;;;;5.10;1.05;;;;;;;19.11;44.68;100856.25;5050355;28;20037;-62
2021/12/07 09:09:46;;;;;;;4.40;0.90;;;;;;;19.07;45.37;100844.22;5052790;28;20029;-62
2021/12/07 09:12:12;;;;;;;8.15;0.68;;;;;;;19.10;45.32;100832.47;5058449;28;20501;-63
2021/12/07 09:14:37;;;;;;;3.20;0.88;;;;;;;19.11;45.04;100842.94;5059929;28;20374;-62
2021/12/07 09:17:04;;;;;;;3.75;0.70;;;;;;;19.11;45.55;100850.91;5067616;28;20074;-63
2021/12/07 09:19:29;;;;;;;3.45;0.63;;;;;;;19.12;45.38;100852.63;5047465;28;20032;-63
2021/12/07 09:21:55;;;;;;;5.05;0.93;;;;;;;19.18;46.09;100845.91;5062459;28;20750;-62
2021/12/07 09:24:20;;;;;;;6.13;1.35;;;;;;;19.19;45.50;100845.75;5065270;28;20049;-63
2021/12/07 09:26:45;;;;;;;3.42;0.80;;;;;;;19.19;45.54;100851.06;5057709;28;20049;-64
2021/12/07 09:29:11;;;;;;;4.97;1.00;;;;;;;19.19;45.69;100855.53;5048704;28;20045;-63
2021/12/07 09:31:36;;;;;;;3.00;0.77;;;;;;;19.17;45.39;100850.34;5054654;28;20401;-63
2021/12/07 09:34:02;;;;;;;3.05;0.70;;;;;;;19.14;45.71;100850.63;5067536;28;20060;-63
2021/12/07 09:36:28;;;;;;;2.40;0.60;;;;;;;19.11;45.54;100844.75;5068568;28;20040;-63
2021/12/07 09:38:53;;;;;;;3.92;0.75;;;;;;;19.13;45.92;100853.44;5068599;28;20036;-63
2021/12/07 09:41:20;;;;;;;2.65;0.60;;;;;;;19.15;45.87;100862.97;5064624;28;20618;-63
2021/12/07 09:43:45;;;;;;;3.47;0.90;;;;;;;19.16;45.84;100867.28;5046595;28;20056;-63
2021/12/07 09:46:11;;;;;;;6.53;0.82;;;;;;;19.18;45.35;100873.31;5019147;28;20097;-63
2021/12/07 09:48:36;;;;;;;4.78;0.90;;;;;;;19.18;46.05;100868.00;5050058;28;20119;-62
2021/12/07 09:51:02;;;;;;;2.17;0.60;;;;;;;19.16;45.35;100867.28;5063384;28;20159;-63
2021/12/07 09:53:29;;;;;;;3.10;0.70;;;;;;;19.14;44.98;100871.91;5062995;28;20045;-63
2021/12/07 09:55:55;;;;;;;3.58;0.85;;;;;;;19.16;45.35;100877.94;5048569;28;20033;-62
2021/12/07 09:58:21;;;;;;;3.53;0.70;;;;;;;19.18;45.86;100880.47;4997324;28;20518;-63
2021/12/07 10:00:46;;;;;;;4.65;0.90;;;;;;;19.20;45.00;100870.50;5047510;28;20037;-63
2021/12/07 10:03:12;;;;;;;3.75;1.00;;;;;;;19.23;45.49;100864.91;5046675;28;20037;-63
2021/12/07 10:05:39;;;;;;;4.22;0.73;;;;;;;19.21;45.72;100869.53;5046522;28;20041;-63
2021/12/07 10:08:05;;;;;;;5.28;1.10;;;;;;;19.23;45.72;100862.25;5011625;28;20151;-63
2021/12/07 10:10:46;;;;;;;6.30;0.93;;;;;;;19.19;45.23;100858.19;5055674;28;20040;-63
2021/12/07 10:13:11;;;;;;;4.47;1.00;;;;;;;19.17;45.18;100857.50;5049122;28;20041;-63
2021/12/07 10:15:37;;;;;;;3.33;1.00;;;;;;;19.17;45.40;100860.16;5050944;28;20142;-63
2021/12/07 10:18:05;;;;;;;7.70;1.15;;;;;;;19.17;45.61;100858.31;5029407;28;20772;-63
2021/12/07 10:20:43;;;;;;;1.85;0.60;;;;;;;19.24;45.69;100857.75;5056288;28;20055;-62
2021/12/07 10:23:14;;;;;;;4.68;1.05;;;;;;;19.27;45.45;100855.66;5038760;28;20464;-63
2021/12/07 10:25:40;;;;;;;3.47;0.85;;;;;;;19.24;45.32;100849.78;5048490;28;20040;-62
2021/12/07 10:28:25;;;;;;;3.95;0.65;;;;;;;19.19;45.21;100837.75;5055108;28;20382;-63
2021/12/07 10:30:51;;;;;;;3.63;0.88;;;;;;;19.19;45.16;100843.06;5053557;28;20043;-62
2021/12/07 10:33:47;;;;;;;4.97;0.90;;;;;;;19.16;45.06;100840.72;5066466;28;20048;-62
2021/12/07 10:36:13;;;;;;;4.13;0.95;;;;;;;19.14;45.31;100824.03;5038939;28;20062;-62
2021/12/07 10:38:38;;;;;;;5.05;0.80;;;;;;;19.17;45.21;100822.91;5057343;28;20511;-62
2021/12/07 10:41:08;;;;;;;4.07;1.15;;;;;;;19.15;45.18;100815.09;5051301;28;20072;-63
2021/12/07 10:43:44;;;;;;;4.53;1.15;;;;;;;19.17;45.11;100813.13;5048553;28;20041;-63
2021/12/07 10:46:40;;;;;;;5.72;1.25;;;;;;;19.15;46.06;100807.13;5066709;28;20150;-63
2021/12/07 10:49:13;;;;;;;3.83;0.90;;;;;;;19.16;45.53;100807.97;4951520;28;20164;-64
2021/12/07 10:51:39;;;;;;;2.83;0.80;;;;;;;19.14;45.67;100799.28;5066758;28;20045;-62
2021/12/07 10:54:05;;;;;;;4.78;0.80;;;;;;;19.10;45.92;100790.75;5066132;28;20193;-62
2021/12/07 10:56:32;;;;;;;3.30;1.00;;;;;;;19.13;45.92;100790.47;5049438;28;20400;-62
2021/12/07 10:59:07;;;;;;;5.07;1.02;;;;;;;19.16;45.42;100779.53;5049521;28;20040;-62
2021/12/07 11:01:33;;;;;;;2.95;0.85;;;;;;;19.19;45.26;100775.75;5048357;28;20037;-63
2021/12/07 11:04:31;;;;;;;2.40;0.68;;;;;;;19.19;45.30;100773.09;5064929;28;20281;-62
2021/12/07 11:07:05;;;;;;;3.20;0.73;;;;;;;19.34;45.42;100781.47;5035501;28;20520;-63
2021/12/07 11:09:45;;;;;;;2.65;0.80;;;;;;;19.32;45.04;100772.78;5029297;28;20519;-62
2021/12/07 11:12:13;;;;;;;4.75;0.95;;;;;;;19.26;45.71;100768.88;5048300;28;20045;-62
2021/12/07 11:14:50;;;;;;;5.75;1.00;;;;;;;19.17;45.13;100764.41;5048165;28;20039;-62
2021/12/07 11:17:17;;;;;;;5.60;1.00;;;;;;;19.19;45.21;100768.63;5048986;28;20580;-63
2021/12/07 11:19:43;;;;;;;5.22;1.00;;;;;;;19.25;45.50;100767.19;5065198;28;20040;-62
2021/12/07 11:22:09;;;;;;;4.35;0.85;;;;;;;19.34;46.29;100765.50;5039246;28;20084;-63
2021/12/07 11:24:39;;;;;;;4.50;0.88;;;;;;;19.36;45.48;100760.84;5042461;28;20045;-62
2021/12/07 11:30:05;;;;;;;4.40;1.08;;;;;;;19.28;45.16;100756.28;5061286;28;20447;-63
2021/12/07 11:32:30;;;;;;;4.32;0.93;;;;;;;19.27;45.38;100759.88;5066369;28;20492;-63
2021/12/07 11:35:06;;;;;;;5.47;1.02;;;;;;;19.27;45.62;100759.06;5066166;28;20120;-63
2021/12/07 11:37:36;;;;;;;5.45;1.00;;;;;;;19.27;45.91;100757.22;5048845;28;20492;-63
2021/12/07 11:40:02;;;;;;;3.28;0.70;;;;;;;19.30;45.67;100740.16;5032469;28;20071;-64
2021/12/07 11:42:29;;;;;;;3.22;0.85;;;;;;;19.30;45.61;100733.00;5067046;28;20047;-63
2021/12/07 11:45:12;;;;;;;4.88;1.08;;;;;;;19.30;45.28;100716.22;5048764;28;20045;-63
2021/12/07 11:47:39;;;;;;;3.60;0.90;;;;;;;19.30;46.09;100716.22;5066769;28;20448;-63
2021/12/07 11:50:13;;;;;;;6.15;0.85;;;;;;;19.27;46.27;100720.00;5066736;28;20044;-63
2021/12/07 11:52:38;;;;;;;5.00;1.10;;;;;;;19.27;46.06;100705.88;5066903;28;20037;-63
2021/12/07 11:55:05;;;;;;;4.15;1.10;;;;;;;19.27;45.48;100711.19;5066621;28;20036;-63
2021/12/07 11:57:30;;;;;;;4.30;1.05;;;;;;;19.26;46.24;100705.03;5040541;28;20037;-61
2021/12/07 11:59:56;;;;;;;3.50;0.93;;;;;;;19.26;45.83;100682.91;5056809;28;20522;-62
2021/12/07 12:02:23;;;;;;;3.25;0.70;;;;;;;19.28;44.86;100686.28;5059101;28;20044;-63
2021/12/07 12:04:48;;;;;;;4.82;0.80;;;;;;;19.26;45.78;100677.59;5045002;28;20051;-63
2021/12/07 12:07:14;;;;;;;4.28;1.10;;;;;;;19.25;45.30;100670.63;5027645;28;20066;-62
2021/12/07 12:09:49;;;;;;;5.40;0.95;;;;;;;19.27;45.32;100663.31;5055393;28;20039;-63
2021/12/07 12:12:45;;;;;;;4.32;1.10;;;;;;;19.25;45.60;100644.84;5018351;28;20135;-62
2021/12/07 12:15:32;;;;;;;6.38;1.27;;;;;;;19.27;45.99;100644.69;5067656;28;20072;-63
2021/12/07 12:18:08;;;;;;;2.78;0.70;;;;;;;19.27;45.43;100637.53;5069303;28;20090;-62
2021/12/07 12:20:56;;;;;;;5.88;1.00;;;;;;;19.25;45.56;100633.38;5053953;28;20432;-62
2021/12/07 12:23:51;;;;;;;4.38;1.00;;;;;;;19.24;45.07;100640.53;5054317;28;20098;-62
2021/12/07 12:26:22;;;;;;;3.67;0.88;;;;;;;19.23;45.42;100638.00;5067181;28;20072;-63
2021/12/07 12:28:49;;;;;;;4.95;1.40;;;;;;;19.23;45.96;100630.03;5039548;28;20045;-62
2021/12/07 12:31:14;;;;;;;4.78;1.00;;;;;;;19.25;45.55;100636.03;5059943;28;20354;-63
2021/12/07 12:33:51;;;;;;;5.10;1.70;;;;;;;19.21;45.50;100629.31;5059451;28;20500;-63
2021/12/07 12:36:17;;;;;;;4.40;0.82;;;;;;;19.23;44.91;100619.38;5055044;28;20040;-63
2021/12/07 12:38:46;;;;;;;3.67;0.95;;;;;;;19.24;45.53;100615.72;5066775;28;20507;-63
2021/12/07 12:41:13;;;;;;;4.45;1.10;;;;;;;19.26;45.04;100608.44;5051528;28;20057;-63
2021/12/07 12:43:49;;;;;;;5.25;1.45;;;;;;;19.24;45.22;100605.09;5058293;28;20273;-62
2021/12/07 12:46:17;;;;;;;5.38;1.00;;;;;;;19.25;45.16;100596.16;5061744;28;20523;-63
2021/12/07 12:48:45;;;;;;;5.18;1.05;;;;;;;19.26;44.47;100592.50;5065093;28;20116;-62
2021/12/07 12:51:11;;;;;;;4.90;1.05;;;;;;;19.26;45.38;100597.81;5049187;28;20044;-63
2021/12/07 12:53:36;;;;;;;6.43;1.08;;;;;;;19.25;45.26;100590.84;5038649;28;20451;-62
2021/12/07 12:56:19;;;;;;;4.57;0.95;;;;;;;19.23;45.68;100582.16;5051020;28;20032;-62
2021/12/07 12:58:49;;;;;;;4.80;0.90;;;;;;;19.21;44.41;100562.84;5036012;28;20436;-63
2021/12/07 13:01:49;;;;;;;5.55;1.08;;;;;;;19.25;44.43;100559.75;5042173;28;20045;-63
2021/12/07 13:04:35;;;;;;;4.72;1.25;;;;;;;19.26;45.04;100558.75;4938179;28;20420;-63
2021/12/07 13:09:41;;;;;;;4.35;1.20;;;;;;;19.25;44.56;100521.69;5032429;28;20044;-63
2021/12/07 13:12:17;;;;;;;4.60;1.40;;;;;;;19.23;44.71;100508.53;5048884;28;20095;-63
2021/12/07 13:14:48;;;;;;;3.83;0.85;;;;;;;19.26;44.84;100513.53;5013235;28;20490;-62
2021/12/07 13:17:14;;;;;;;5.90;1.30;;;;;;;19.27;44.22;100519.69;5038990;28;20050;-62
2021/12/07 13:20:16;;;;;;;6.55;1.30;;;;;;;19.17;44.90;100507.28;5040957;28;20057;-62